sensor_id;sensor_type;location;lat;lon;timestamp;temperature;humidity
30379;DHT22;17168;49.164;9.060;2023-07-02T00:01:36;18.60;99.90
30379;DHT22;17168;49.164;9.060;2023-07-02T00:04:09;18.50;99.90
30379;DHT22;17168;49.164;9.060;2023-07-02T00:06:43;18.50;99.90
30379;DHT22;17168;49.164;9.060;2023-07-02T00:09:18;18.50;99.90
30379;DHT22;17168;49.164;9.060;2023-07-02T00:11:51;18.50;99.90
30379;DHT22;17168;49.164;9.060;2023-07-02T00:14:23;18.40;99.90
30379;DHT22;17168;49.164;9.060;2023-07-02T00:16:56;18.40;99.90
30379;DHT22;17168;49.164;9.060;2023-07-02T00:19:29;18.30;99.90
30379;DHT22;17168;49.164;9.060;2023-07-02T00:22:01;18.30;99.90
30379;DHT22;17168;49.164;9.060;2023-07-02T00:24:37;18.30;99.90
30379;DHT22;17168;49.164;9.060;2023-07-02T00:27:09;18.20;99.90
30379;DHT22;17168;49.164;9.060;2023-07-02T00:29:42;18.20;99.90
30379;DHT22;17168;49.164;9.060;2023-07-02T00:32:14;18.20;99.90
30379;DHT22;17168;49.164;9.060;2023-07-02T00:34:46;18.20;99.90
30379;DHT22;17168;49.164;9.060;2023-07-02T00:37:19;18.20;99.90
30379;DHT22;17168;49.164;9.060;2023-07-02T00:39:54;18.10;99.90
30379;DHT22;17168;49.164;9.060;2023-07-02T00:42:26;18.10;99.90
30379;DHT22;17168;49.164;9.060;2023-07-02T00:45:01;18.10;99.90
30379;DHT22;17168;49.164;9.060;2023-07-02T00:47:36;18.10;99.90
30379;DHT22;17168;49.164;9.060;2023-07-02T00:50:10;18.10;99.90
30379;DHT22;17168;49.164;9.060;2023-07-02T00:52:43;18.10;99.90
30379;DHT22;17168;49.164;9.060;2023-07-02T00:55:18;18.10;99.90
30379;DHT22;17168;49.164;9.060;2023-07-02T00:57:50;18.10;99.90
30379;DHT22;17168;49.164;9.060;2023-07-02T01:00:23;18.10;99.90
30379;DHT22;17168;49.164;9.060;2023-07-02T01:02:56;18.10;99.90
30379;DHT22;17168;49.164;9.060;2023-07-02T01:05:31;18.10;99.90
30379;DHT22;17168;49.164;9.060;2023-07-02T01:08:08;18.10;99.90
30379;DHT22;17168;49.164;9.060;2023-07-02T01:10:43;18.10;99.90
30379;DHT22;17168;49.164;9.060;2023-07-02T01:13:19;18.20;99.90
30379;DHT22;17168;49.164;9.060;2023-07-02T01:15:52;18.20;99.90
30379;DHT22;17168;49.164;9.060;2023-07-02T01:18:25;18.20;99.90
30379;DHT22;17168;49.164;9.060;2023-07-02T01:21:01;18.20;99.90
30379;DHT22;17168;49.164;9.060;2023-07-02T01:23:34;18.20;99.90
30379;DHT22;17168;49.164;9.060;2023-07-02T01:26:06;18.20;99.90
30379;DHT22;17168;49.164;9.060;2023-07-02T01:28:39;18.20;99.90
30379;DHT22;17168;49.164;9.060;2023-07-02T01:31:11;18.20;99.90
30379;DHT22;17168;49.164;9.060;2023-07-02T01:33:43;18.20;99.90
30379;DHT22;17168;49.164;9.060;2023-07-02T01:36:18;18.20;99.90
30379;DHT22;17168;49.164;9.060;2023-07-02T01:38:51;18.20;99.90
30379;DHT22;17168;49.164;9.060;2023-07-02T01:41:23;18.20;99.90
30379;DHT22;17168;49.164;9.060;2023-07-02T01:43:55;18.20;99.90
30379;DHT22;17168;49.164;9.060;2023-07-02T01:46:28;18.20;99.90
30379;DHT22;17168;49.164;9.060;2023-07-02T01:49:00;18.20;99.90
30379;DHT22;17168;49.164;9.060;2023-07-02T01:51:35;18.20;99.90
30379;DHT22;17168;49.164;9.060;2023-07-02T01:54:07;18.20;99.90
30379;DHT22;17168;49.164;9.060;2023-07-02T01:56:40;18.20;99.90
30379;DHT22;17168;49.164;9.060;2023-07-02T01:59:12;18.20;99.90
30379;DHT22;17168;49.164;9.060;2023-07-02T02:01:45;18.20;99.90
30379;DHT22;17168;49.164;9.060;2023-07-02T02:04:18;18.20;99.90
30379;DHT22;17168;49.164;9.060;2023-07-02T02:06:53;18.20;99.90
30379;DHT22;17168;49.164;9.060;2023-07-02T02:09:25;18.20;99.90
30379;DHT22;17168;49.164;9.060;2023-07-02T02:12:00;18.20;99.90
30379;DHT22;17168;49.164;9.060;2023-07-02T02:14:32;18.20;99.90
30379;DHT22;17168;49.164;9.060;2023-07-02T02:17:05;18.20;99.90
30379;DHT22;17168;49.164;9.060;2023-07-02T02:19:37;18.20;99.90
30379;DHT22;17168;49.164;9.060;2023-07-02T02:22:12;18.20;99.90
30379;DHT22;17168;49.164;9.060;2023-07-02T02:24:45;18.20;99.90
30379;DHT22;17168;49.164;9.060;2023-07-02T02:27:17;18.20;99.90
30379;DHT22;17168;49.164;9.060;2023-07-02T02:29:49;18.20;99.90
30379;DHT22;17168;49.164;9.060;2023-07-02T02:32:21;18.20;99.90
30379;DHT22;17168;49.164;9.060;2023-07-02T02:34:54;18.20;99.90
30379;DHT22;17168;49.164;9.060;2023-07-02T02:37:29;18.20;99.90
30379;DHT22;17168;49.164;9.060;2023-07-02T02:40:02;18.10;99.90
30379;DHT22;17168;49.164;9.060;2023-07-02T02:42:34;18.20;99.90
30379;DHT22;17168;49.164;9.060;2023-07-02T02:45:08;18.10;99.90
30379;DHT22;17168;49.164;9.060;2023-07-02T02:47:40;18.10;99.90
30379;DHT22;17168;49.164;9.060;2023-07-02T02:50:13;18.10;99.90
30379;DHT22;17168;49.164;9.060;2023-07-02T02:52:48;18.10;99.90
30379;DHT22;17168;49.164;9.060;2023-07-02T02:55:20;18.10;98.60
30379;DHT22;17168;49.164;9.060;2023-07-02T02:57:52;18.10;98.40
30379;DHT22;17168;49.164;9.060;2023-07-02T03:00:25;18.10;96.70
30379;DHT22;17168;49.164;9.060;2023-07-02T03:02:58;18.10;96.10
30379;DHT22;17168;49.164;9.060;2023-07-02T03:05:30;18.10;96.40
30379;DHT22;17168;49.164;9.060;2023-07-02T03:08:05;18.10;96.50
30379;DHT22;17168;49.164;9.060;2023-07-02T03:10:38;18.10;95.80
30379;DHT22;17168;49.164;9.060;2023-07-02T03:13:11;18.10;95.60
30379;DHT22;17168;49.164;9.060;2023-07-02T03:15:43;18.10;95.30
30379;DHT22;17168;49.164;9.060;2023-07-02T03:18:15;18.10;95.40
30379;DHT22;17168;49.164;9.060;2023-07-02T03:20:47;18.00;95.30
30379;DHT22;17168;49.164;9.060;2023-07-02T03:23:23;18.10;95.50
30379;DHT22;17168;49.164;9.060;2023-07-02T03:25:56;18.00;95.30
30379;DHT22;17168;49.164;9.060;2023-07-02T03:28:28;18.00;95.50
30379;DHT22;17168;49.164;9.060;2023-07-02T03:31:00;18.00;95.80
30379;DHT22;17168;49.164;9.060;2023-07-02T03:33:33;17.90;95.70
30379;DHT22;17168;49.164;9.060;2023-07-02T03:36:05;17.90;96.00
30379;DHT22;17168;49.164;9.060;2023-07-02T03:38:41;17.90;96.10
30379;DHT22;17168;49.164;9.060;2023-07-02T03:41:13;17.90;96.50
30379;DHT22;17168;49.164;9.060;2023-07-02T03:43:46;17.80;97.00
30379;DHT22;17168;49.164;9.060;2023-07-02T03:46:20;17.80;97.80
30379;DHT22;17168;49.164;9.060;2023-07-02T03:48:52;17.80;98.70
30379;DHT22;17168;49.164;9.060;2023-07-02T03:51:24;17.80;99.40
30379;DHT22;17168;49.164;9.060;2023-07-02T03:54:00;17.70;99.70
30379;DHT22;17168;49.164;9.060;2023-07-02T03:56:33;17.70;99.90
30379;DHT22;17168;49.164;9.060;2023-07-02T03:59:05;17.70;99.90
30379;DHT22;17168;49.164;9.060;2023-07-02T04:01:38;17.60;99.90
30379;DHT22;17168;49.164;9.060;2023-07-02T04:04:10;17.60;99.90
30379;DHT22;17168;49.164;9.060;2023-07-02T04:06:45;17.50;99.90
30379;DHT22;17168;49.164;9.060;2023-07-02T04:09:20;17.50;99.90
30379;DHT22;17168;49.164;9.060;2023-07-02T04:11:53;17.50;99.90
30379;DHT22;17168;49.164;9.060;2023-07-02T04:14:25;17.50;99.90
30379;DHT22;17168;49.164;9.060;2023-07-02T04:16:57;17.40;99.90
30379;DHT22;17168;49.164;9.060;2023-07-02T04:19:29;17.40;99.90
30379;DHT22;17168;49.164;9.060;2023-07-02T04:22:02;17.40;99.90
30379;DHT22;17168;49.164;9.060;2023-07-02T04:24:37;17.40;99.90
30379;DHT22;17168;49.164;9.060;2023-07-02T04:27:10;17.30;99.90
30379;DHT22;17168;49.164;9.060;2023-07-02T04:30:04;17.30;99.90
30379;DHT22;17168;49.164;9.060;2023-07-02T04:32:38;17.30;99.90
30379;DHT22;17168;49.164;9.060;2023-07-02T04:35:13;17.30;99.90
30379;DHT22;17168;49.164;9.060;2023-07-02T04:37:46;17.30;99.90
30379;DHT22;17168;49.164;9.060;2023-07-02T04:40:21;17.30;99.90
30379;DHT22;17168;49.164;9.060;2023-07-02T04:42:53;17.30;99.90
30379;DHT22;17168;49.164;9.060;2023-07-02T04:45:29;17.30;99.90
30379;DHT22;17168;49.164;9.060;2023-07-02T04:48:04;17.20;99.90
30379;DHT22;17168;49.164;9.060;2023-07-02T04:50:36;17.20;99.90
30379;DHT22;17168;49.164;9.060;2023-07-02T04:53:09;17.20;99.90
30379;DHT22;17168;49.164;9.060;2023-07-02T04:55:44;17.30;99.90
30379;DHT22;17168;49.164;9.060;2023-07-02T04:58:16;17.30;99.90
30379;DHT22;17168;49.164;9.060;2023-07-02T05:00:48;17.30;99.90
30379;DHT22;17168;49.164;9.060;2023-07-02T05:03:21;17.30;99.90
30379;DHT22;17168;49.164;9.060;2023-07-02T05:05:54;17.30;99.90
30379;DHT22;17168;49.164;9.060;2023-07-02T05:08:26;17.30;99.90
30379;DHT22;17168;49.164;9.060;2023-07-02T05:11:01;17.40;99.90
30379;DHT22;17168;49.164;9.060;2023-07-02T05:13:33;17.40;99.90
30379;DHT22;17168;49.164;9.060;2023-07-02T05:16:06;17.30;99.90
30379;DHT22;17168;49.164;9.060;2023-07-02T05:18:38;17.40;99.90
30379;DHT22;17168;49.164;9.060;2023-07-02T05:21:11;17.40;99.90
30379;DHT22;17168;49.164;9.060;2023-07-02T05:23:43;17.40;99.90
30379;DHT22;17168;49.164;9.060;2023-07-02T05:26:18;17.50;99.90
30379;DHT22;17168;49.164;9.060;2023-07-02T05:28:53;17.50;99.90
30379;DHT22;17168;49.164;9.060;2023-07-02T05:31:25;17.50;99.90
30379;DHT22;17168;49.164;9.060;2023-07-02T05:33:57;17.60;99.90
30379;DHT22;17168;49.164;9.060;2023-07-02T05:36:30;17.60;99.90
30379;DHT22;17168;49.164;9.060;2023-07-02T05:39:02;17.60;99.90
30379;DHT22;17168;49.164;9.060;2023-07-02T05:41:37;17.70;99.90
30379;DHT22;17168;49.164;9.060;2023-07-02T05:44:09;17.70;99.90
30379;DHT22;17168;49.164;9.060;2023-07-02T05:46:42;17.80;99.70
30379;DHT22;17168;49.164;9.060;2023-07-02T05:49:14;17.80;99.50
30379;DHT22;17168;49.164;9.060;2023-07-02T05:51:47;17.80;99.00
30379;DHT22;17168;49.164;9.060;2023-07-02T05:54:20;17.80;98.60
30379;DHT22;17168;49.164;9.060;2023-07-02T05:56:55;17.90;98.80
30379;DHT22;17168;49.164;9.060;2023-07-02T05:59:27;17.90;98.50
30379;DHT22;17168;49.164;9.060;2023-07-02T06:01:59;17.90;97.50
30379;DHT22;17168;49.164;9.060;2023-07-02T06:04:32;17.90;97.00
30379;DHT22;17168;49.164;9.060;2023-07-02T06:07:05;18.00;97.30
30379;DHT22;17168;49.164;9.060;2023-07-02T06:09:37;18.00;97.40
30379;DHT22;17168;49.164;9.060;2023-07-02T06:12:13;18.00;96.20
30379;DHT22;17168;49.164;9.060;2023-07-02T06:14:45;18.10;94.00
30379;DHT22;17168;49.164;9.060;2023-07-02T06:17:17;18.10;94.00
30379;DHT22;17168;49.164;9.060;2023-07-02T06:19:49;18.10;94.40
30379;DHT22;17168;49.164;9.060;2023-07-02T06:22:22;18.20;93.20
30379;DHT22;17168;49.164;9.060;2023-07-02T06:24:54;18.20;92.00
30379;DHT22;17168;49.164;9.060;2023-07-02T06:27:29;18.30;90.50
30379;DHT22;17168;49.164;9.060;2023-07-02T06:30:01;18.40;90.00
30379;DHT22;17168;49.164;9.060;2023-07-02T06:32:34;18.40;87.80
30379;DHT22;17168;49.164;9.060;2023-07-02T06:35:07;18.40;87.20
30379;DHT22;17168;49.164;9.060;2023-07-02T06:37:39;18.50;85.30
30379;DHT22;17168;49.164;9.060;2023-07-02T06:40:12;18.50;83.40
30379;DHT22;17168;49.164;9.060;2023-07-02T06:42:47;18.60;82.00
30379;DHT22;17168;49.164;9.060;2023-07-02T06:45:19;18.60;81.40
30379;DHT22;17168;49.164;9.060;2023-07-02T06:47:51;18.70;79.20
30379;DHT22;17168;49.164;9.060;2023-07-02T06:50:24;18.70;77.90
30379;DHT22;17168;49.164;9.060;2023-07-02T06:52:56;18.80;77.70
30379;DHT22;17168;49.164;9.060;2023-07-02T06:55:28;18.80;77.00
30379;DHT22;17168;49.164;9.060;2023-07-02T06:58:04;18.90;75.00
30379;DHT22;17168;49.164;9.060;2023-07-02T07:00:36;18.90;74.20
30379;DHT22;17168;49.164;9.060;2023-07-02T07:03:09;18.90;72.00
30379;DHT22;17168;49.164;9.060;2023-07-02T07:05:41;18.90;72.30
30379;DHT22;17168;49.164;9.060;2023-07-02T07:27:45;19.30;72.10
30379;DHT22;17168;49.164;9.060;2023-07-02T07:30:17;19.30;70.90
30379;DHT22;17168;49.164;9.060;2023-07-02T07:32:55;19.40;71.30
30379;DHT22;17168;49.164;9.060;2023-07-02T07:35:28;19.40;70.80
30379;DHT22;17168;49.164;9.060;2023-07-02T07:38:00;19.40;70.50
30379;DHT22;17168;49.164;9.060;2023-07-02T07:40:32;19.40;70.60
30379;DHT22;17168;49.164;9.060;2023-07-02T07:43:07;19.50;71.60
30379;DHT22;17168;49.164;9.060;2023-07-02T07:45:39;19.50;71.30
30379;DHT22;17168;49.164;9.060;2023-07-02T07:48:11;19.60;71.80
30379;DHT22;17168;49.164;9.060;2023-07-02T07:50:43;19.60;70.90
30379;DHT22;17168;49.164;9.060;2023-07-02T07:53:15;19.60;71.10
30379;DHT22;17168;49.164;9.060;2023-07-02T07:55:48;19.70;70.30
30379;DHT22;17168;49.164;9.060;2023-07-02T07:58:23;19.70;69.80
30379;DHT22;17168;49.164;9.060;2023-07-02T08:09:10;20.00;68.50
30379;DHT22;17168;49.164;9.060;2023-07-02T08:11:43;20.10;68.20
30379;DHT22;17168;49.164;9.060;2023-07-02T08:14:18;20.20;67.80
30379;DHT22;17168;49.164;9.060;2023-07-02T08:16:51;20.20;67.20
30379;DHT22;17168;49.164;9.060;2023-07-02T08:19:23;20.20;67.00
30379;DHT22;17168;49.164;9.060;2023-07-02T08:21:59;20.30;66.70
30379;DHT22;17168;49.164;9.060;2023-07-02T08:24:42;20.30;66.50
30379;DHT22;17168;49.164;9.060;2023-07-02T08:27:15;20.40;66.90
30379;DHT22;17168;49.164;9.060;2023-07-02T08:29:50;20.40;66.90
30379;DHT22;17168;49.164;9.060;2023-07-02T08:32:23;20.50;67.30
30379;DHT22;17168;49.164;9.060;2023-07-02T08:34:55;20.50;66.50
30379;DHT22;17168;49.164;9.060;2023-07-02T08:37:28;20.60;65.80
30379;DHT22;17168;49.164;9.060;2023-07-02T08:40:01;20.60;65.90
30379;DHT22;17168;49.164;9.060;2023-07-02T08:42:33;20.70;65.20
30379;DHT22;17168;49.164;9.060;2023-07-02T08:45:10;20.70;64.90
30379;DHT22;17168;49.164;9.060;2023-07-02T08:47:45;20.70;64.50
30379;DHT22;17168;49.164;9.060;2023-07-02T08:50:18;20.70;65.00
30379;DHT22;17168;49.164;9.060;2023-07-02T08:52:50;20.70;64.60
30379;DHT22;17168;49.164;9.060;2023-07-02T08:55:27;20.80;63.80
30379;DHT22;17168;49.164;9.060;2023-07-02T08:58:01;20.80;64.30
30379;DHT22;17168;49.164;9.060;2023-07-02T09:00:36;20.90;64.40
30379;DHT22;17168;49.164;9.060;2023-07-02T09:03:13;20.90;62.90
30379;DHT22;17168;49.164;9.060;2023-07-02T09:05:51;21.00;62.70
30379;DHT22;17168;49.164;9.060;2023-07-02T09:08:29;21.00;62.20
30379;DHT22;17168;49.164;9.060;2023-07-02T09:11:09;21.00;62.90
30379;DHT22;17168;49.164;9.060;2023-07-02T09:13:45;21.00;62.80
30379;DHT22;17168;49.164;9.060;2023-07-02T09:16:25;21.10;62.30
30379;DHT22;17168;49.164;9.060;2023-07-02T09:19:03;21.10;61.80
30379;DHT22;17168;49.164;9.060;2023-07-02T09:21:40;21.20;62.30
30379;DHT22;17168;49.164;9.060;2023-07-02T09:24:21;21.20;62.60
30379;DHT22;17168;49.164;9.060;2023-07-02T09:26:57;21.20;62.50
30379;DHT22;17168;49.164;9.060;2023-07-02T09:29:31;21.20;62.90
30379;DHT22;17168;49.164;9.060;2023-07-02T09:32:11;21.20;62.40
30379;DHT22;17168;49.164;9.060;2023-07-02T09:34:46;21.30;62.50
30379;DHT22;17168;49.164;9.060;2023-07-02T09:37:20;21.40;62.10
30379;DHT22;17168;49.164;9.060;2023-07-02T09:39:55;21.40;60.80
30379;DHT22;17168;49.164;9.060;2023-07-02T09:42:33;21.40;60.60
30379;DHT22;17168;49.164;9.060;2023-07-02T09:45:08;21.40;60.70
30379;DHT22;17168;49.164;9.060;2023-07-02T09:47:50;21.40;61.60
30379;DHT22;17168;49.164;9.060;2023-07-02T09:50:24;21.40;61.80
30379;DHT22;17168;49.164;9.060;2023-07-02T09:52:58;21.40;62.30
30379;DHT22;17168;49.164;9.060;2023-07-02T09:55:31;21.50;61.70
30379;DHT22;17168;49.164;9.060;2023-07-02T09:58:18;21.40;62.30
30379;DHT22;17168;49.164;9.060;2023-07-02T10:00:50;21.40;62.50
30379;DHT22;17168;49.164;9.060;2023-07-02T10:03:33;21.40;62.30
30379;DHT22;17168;49.164;9.060;2023-07-02T10:06:08;21.50;62.20
30379;DHT22;17168;49.164;9.060;2023-07-02T10:08:40;21.50;61.60
30379;DHT22;17168;49.164;9.060;2023-07-02T10:11:33;21.50;61.60
30379;DHT22;17168;49.164;9.060;2023-07-02T10:14:07;21.50;59.60
30379;DHT22;17168;49.164;9.060;2023-07-02T10:16:49;21.50;60.20
30379;DHT22;17168;49.164;9.060;2023-07-02T10:19:25;21.50;60.30
30379;DHT22;17168;49.164;9.060;2023-07-02T10:22:15;21.60;60.80
30379;DHT22;17168;49.164;9.060;2023-07-02T10:24:51;21.60;61.20
30379;DHT22;17168;49.164;9.060;2023-07-02T10:27:34;21.70;60.40
30379;DHT22;17168;49.164;9.060;2023-07-02T10:30:09;21.70;60.90
30379;DHT22;17168;49.164;9.060;2023-07-02T10:32:41;21.70;61.10
30379;DHT22;17168;49.164;9.060;2023-07-02T10:35:17;21.80;61.40
30379;DHT22;17168;49.164;9.060;2023-07-02T10:37:50;21.80;61.70
30379;DHT22;17168;49.164;9.060;2023-07-02T10:40:29;21.80;61.30
30379;DHT22;17168;49.164;9.060;2023-07-02T10:43:03;21.90;61.30
30379;DHT22;17168;49.164;9.060;2023-07-02T10:45:36;21.90;61.40
30379;DHT22;17168;49.164;9.060;2023-07-02T10:48:09;21.90;61.50
30379;DHT22;17168;49.164;9.060;2023-07-02T10:50:44;22.00;60.50
30379;DHT22;17168;49.164;9.060;2023-07-02T10:53:19;22.00;60.40
30379;DHT22;17168;49.164;9.060;2023-07-02T10:55:57;22.10;59.70
30379;DHT22;17168;49.164;9.060;2023-07-02T10:58:30;22.10;59.20
30379;DHT22;17168;49.164;9.060;2023-07-02T11:01:03;22.10;58.90
30379;DHT22;17168;49.164;9.060;2023-07-02T11:03:35;22.20;58.60
30379;DHT22;17168;49.164;9.060;2023-07-02T11:06:10;22.20;58.70
30379;DHT22;17168;49.164;9.060;2023-07-02T11:08:43;22.30;57.40
30379;DHT22;17168;49.164;9.060;2023-07-02T11:11:15;22.40;56.70
30379;DHT22;17168;49.164;9.060;2023-07-02T11:13:48;22.60;55.70
30379;DHT22;17168;49.164;9.060;2023-07-02T11:16:25;22.60;55.80
30379;DHT22;17168;49.164;9.060;2023-07-02T11:19:07;22.70;56.70
30379;DHT22;17168;49.164;9.060;2023-07-02T11:21:50;22.70;57.20
30379;DHT22;17168;49.164;9.060;2023-07-02T11:24:31;22.80;57.20
30379;DHT22;17168;49.164;9.060;2023-07-02T11:27:07;22.90;57.10
30379;DHT22;17168;49.164;9.060;2023-07-02T11:29:43;22.90;57.00
30379;DHT22;17168;49.164;9.060;2023-07-02T11:32:16;23.00;57.10
30379;DHT22;17168;49.164;9.060;2023-07-02T11:34:57;23.10;55.60
30379;DHT22;17168;49.164;9.060;2023-07-02T11:37:37;23.20;55.40
30379;DHT22;17168;49.164;9.060;2023-07-02T11:40:11;23.20;55.00
30379;DHT22;17168;49.164;9.060;2023-07-02T11:42:52;23.30;55.00
30379;DHT22;17168;49.164;9.060;2023-07-02T11:45:32;23.40;54.60
30379;DHT22;17168;49.164;9.060;2023-07-02T11:48:04;23.50;54.40
30379;DHT22;17168;49.164;9.060;2023-07-02T11:50:37;23.60;54.20
30379;DHT22;17168;49.164;9.060;2023-07-02T11:53:12;23.60;54.50
30379;DHT22;17168;49.164;9.060;2023-07-02T11:55:47;23.60;53.70
30379;DHT22;17168;49.164;9.060;2023-07-02T11:58:22;23.60;53.90
30379;DHT22;17168;49.164;9.060;2023-07-02T12:00:58;23.50;53.20
30379;DHT22;17168;49.164;9.060;2023-07-02T12:03:30;23.50;53.30
30379;DHT22;17168;49.164;9.060;2023-07-02T12:06:03;23.40;53.50
30379;DHT22;17168;49.164;9.060;2023-07-02T12:08:44;23.50;53.50
30379;DHT22;17168;49.164;9.060;2023-07-02T12:11:19;23.70;53.00
30379;DHT22;17168;49.164;9.060;2023-07-02T12:13:51;23.90;53.60
30379;DHT22;17168;49.164;9.060;2023-07-02T12:16:31;24.30;52.50
30379;DHT22;17168;49.164;9.060;2023-07-02T12:19:04;24.60;50.90
30379;DHT22;17168;49.164;9.060;2023-07-02T12:21:36;25.00;50.40
30379;DHT22;17168;49.164;9.060;2023-07-02T12:24:11;25.30;50.80
30379;DHT22;17168;49.164;9.060;2023-07-02T12:26:43;25.40;50.30
30379;DHT22;17168;49.164;9.060;2023-07-02T12:29:16;25.50;50.30
30379;DHT22;17168;49.164;9.060;2023-07-02T12:31:48;25.40;50.20
30379;DHT22;17168;49.164;9.060;2023-07-02T12:34:20;25.30;49.80
30379;DHT22;17168;49.164;9.060;2023-07-02T12:36:52;25.40;50.40
30379;DHT22;17168;49.164;9.060;2023-07-02T12:39:27;25.40;50.00
30379;DHT22;17168;49.164;9.060;2023-07-02T12:42:00;25.30;50.50
30379;DHT22;17168;49.164;9.060;2023-07-02T12:44:32;25.20;50.70
30379;DHT22;17168;49.164;9.060;2023-07-02T12:47:05;25.20;50.00
30379;DHT22;17168;49.164;9.060;2023-07-02T12:49:37;25.30;49.70
30379;DHT22;17168;49.164;9.060;2023-07-02T12:52:09;25.50;49.80
30379;DHT22;17168;49.164;9.060;2023-07-02T12:54:48;25.60;50.30
30379;DHT22;17168;49.164;9.060;2023-07-02T12:57:21;25.60;49.50
30379;DHT22;17168;49.164;9.060;2023-07-02T12:59:53;25.60;49.10
30379;DHT22;17168;49.164;9.060;2023-07-02T13:02:25;25.60;49.20
30379;DHT22;17168;49.164;9.060;2023-07-02T13:04:58;25.50;48.70
30379;DHT22;17168;49.164;9.060;2023-07-02T13:07:30;25.50;49.30
30379;DHT22;17168;49.164;9.060;2023-07-02T13:10:13;25.90;49.90
30379;DHT22;17168;49.164;9.060;2023-07-02T13:12:45;26.20;49.80
30379;DHT22;17168;49.164;9.060;2023-07-02T13:15:17;26.50;46.50
30379;DHT22;17168;49.164;9.060;2023-07-02T13:17:51;26.40;45.40
30379;DHT22;17168;49.164;9.060;2023-07-02T13:20:23;26.30;46.20
30379;DHT22;17168;49.164;9.060;2023-07-02T13:22:55;26.30;47.00
30379;DHT22;17168;49.164;9.060;2023-07-02T13:25:30;26.10;46.00
30379;DHT22;17168;49.164;9.060;2023-07-02T13:28:03;26.00;47.00
30379;DHT22;17168;49.164;9.060;2023-07-02T13:30:35;25.90;47.50
30379;DHT22;17168;49.164;9.060;2023-07-02T13:33:08;25.70;47.50
30379;DHT22;17168;49.164;9.060;2023-07-02T13:35:40;25.60;48.50
30379;DHT22;17168;49.164;9.060;2023-07-02T13:38:13;25.60;48.00
30379;DHT22;17168;49.164;9.060;2023-07-02T13:40:48;25.70;48.20
30379;DHT22;17168;49.164;9.060;2023-07-02T13:43:23;25.70;48.10
30379;DHT22;17168;49.164;9.060;2023-07-02T13:45:55;25.80;47.70
30379;DHT22;17168;49.164;9.060;2023-07-02T13:48:27;26.00;47.50
30379;DHT22;17168;49.164;9.060;2023-07-02T13:51:00;26.20;48.10
30379;DHT22;17168;49.164;9.060;2023-07-02T13:53:32;26.30;46.80
30379;DHT22;17168;49.164;9.060;2023-07-02T13:56:07;26.30;46.90
30379;DHT22;17168;49.164;9.060;2023-07-02T14:01:21;26.30;46.30
30379;DHT22;17168;49.164;9.060;2023-07-02T14:03:53;26.30;46.10
30379;DHT22;17168;49.164;9.060;2023-07-02T14:06:26;26.30;46.90
30379;DHT22;17168;49.164;9.060;2023-07-02T14:08:59;26.40;46.60
30379;DHT22;17168;49.164;9.060;2023-07-02T14:11:31;26.50;45.80
30379;DHT22;17168;49.164;9.060;2023-07-02T14:14:04;26.60;46.20
30379;DHT22;17168;49.164;9.060;2023-07-02T14:16:40;26.60;46.10
30379;DHT22;17168;49.164;9.060;2023-07-02T14:19:13;26.70;46.20
30379;DHT22;17168;49.164;9.060;2023-07-02T14:21:47;26.80;45.70
30379;DHT22;17168;49.164;9.060;2023-07-02T14:24:22;27.10;45.30
30379;DHT22;17168;49.164;9.060;2023-07-02T14:26:55;27.30;45.00
30379;DHT22;17168;49.164;9.060;2023-07-02T14:29:27;27.50;44.80
30379;DHT22;17168;49.164;9.060;2023-07-02T14:32:02;27.60;44.20
30379;DHT22;17168;49.164;9.060;2023-07-02T14:34:35;27.70;43.70
30379;DHT22;17168;49.164;9.060;2023-07-02T14:37:07;27.80;43.50
30379;DHT22;17168;49.164;9.060;2023-07-02T14:39:42;27.80;43.80
30379;DHT22;17168;49.164;9.060;2023-07-02T14:42:32;27.80;43.90
30379;DHT22;17168;49.164;9.060;2023-07-02T14:45:05;27.70;43.10
30379;DHT22;17168;49.164;9.060;2023-07-02T14:47:44;27.80;43.00
30379;DHT22;17168;49.164;9.060;2023-07-02T14:50:21;27.70;42.50
30379;DHT22;17168;49.164;9.060;2023-07-02T14:53:07;27.70;43.10
30379;DHT22;17168;49.164;9.060;2023-07-02T14:55:40;27.60;43.00
30379;DHT22;17168;49.164;9.060;2023-07-02T14:58:15;27.60;42.90
30379;DHT22;17168;49.164;9.060;2023-07-02T15:00:48;27.50;43.10
30379;DHT22;17168;49.164;9.060;2023-07-02T15:03:25;27.50;43.20
30379;DHT22;17168;49.164;9.060;2023-07-02T15:06:09;27.40;42.40
30379;DHT22;17168;49.164;9.060;2023-07-02T15:08:45;27.40;43.00
30379;DHT22;17168;49.164;9.060;2023-07-02T15:11:22;27.40;42.50
30379;DHT22;17168;49.164;9.060;2023-07-02T15:13:54;27.30;42.80
30379;DHT22;17168;49.164;9.060;2023-07-02T15:16:30;27.30;42.70
30379;DHT22;17168;49.164;9.060;2023-07-02T15:19:08;27.20;42.10
30379;DHT22;17168;49.164;9.060;2023-07-02T15:21:40;27.20;42.40
30379;DHT22;17168;49.164;9.060;2023-07-02T15:24:21;27.20;42.20
30379;DHT22;17168;49.164;9.060;2023-07-02T15:26:53;27.20;42.10
30379;DHT22;17168;49.164;9.060;2023-07-02T15:29:27;27.30;42.10
30379;DHT22;17168;49.164;9.060;2023-07-02T15:36:02;27.50;42.40
30379;DHT22;17168;49.164;9.060;2023-07-02T15:38:35;27.60;42.40
30379;DHT22;17168;49.164;9.060;2023-07-02T15:41:11;27.70;41.50
30379;DHT22;17168;49.164;9.060;2023-07-02T15:44:21;27.70;41.30
30379;DHT22;17168;49.164;9.060;2023-07-02T15:47:07;27.70;41.10
30379;DHT22;17168;49.164;9.060;2023-07-02T15:49:41;27.70;41.00
30379;DHT22;17168;49.164;9.060;2023-07-02T15:52:16;27.60;41.00
30379;DHT22;17168;49.164;9.060;2023-07-02T15:54:48;27.60;41.50
30379;DHT22;17168;49.164;9.060;2023-07-02T15:57:20;27.60;41.50
30379;DHT22;17168;49.164;9.060;2023-07-02T15:59:53;27.70;41.40
30379;DHT22;17168;49.164;9.060;2023-07-02T16:02:26;27.70;41.20
30379;DHT22;17168;49.164;9.060;2023-07-02T16:04:58;27.70;41.70
30379;DHT22;17168;49.164;9.060;2023-07-02T16:07:33;27.80;41.40
30379;DHT22;17168;49.164;9.060;2023-07-02T16:10:09;27.80;41.00
30379;DHT22;17168;49.164;9.060;2023-07-02T16:12:42;27.80;40.40
30379;DHT22;17168;49.164;9.060;2023-07-02T16:15:18;27.80;40.80
30379;DHT22;17168;49.164;9.060;2023-07-02T16:17:50;27.80;40.20
30379;DHT22;17168;49.164;9.060;2023-07-02T16:20:26;27.70;40.40
30379;DHT22;17168;49.164;9.060;2023-07-02T16:23:02;27.60;40.40
30379;DHT22;17168;49.164;9.060;2023-07-02T16:25:34;27.60;40.80
30379;DHT22;17168;49.164;9.060;2023-07-02T16:28:07;27.60;40.60
30379;DHT22;17168;49.164;9.060;2023-07-02T16:30:39;27.50;40.80
30379;DHT22;17168;49.164;9.060;2023-07-02T16:33:11;27.50;40.70
30379;DHT22;17168;49.164;9.060;2023-07-02T16:35:43;27.50;40.90
30379;DHT22;17168;49.164;9.060;2023-07-02T16:38:18;27.50;41.10
30379;DHT22;17168;49.164;9.060;2023-07-02T16:41:10;27.60;41.40
30379;DHT22;17168;49.164;9.060;2023-07-02T16:43:51;27.70;41.20
30379;DHT22;17168;49.164;9.060;2023-07-02T16:46:23;27.70;41.30
30379;DHT22;17168;49.164;9.060;2023-07-02T16:48:58;27.70;41.10